Time;durP1;ratioP1;P1;durP2;ratioP2;P2;SDS_P1;SDS_P2;PMS_P1;PMS_P2;Temp;Humidity;BMP_temperature;BMP_pressure;BME280_temperature;BME280_humidity;BME280_pressure;Samples;Min_cycle;Max_cycle;Signal;HPM_P1;HPM_P2
2021/01/19 00:00:48;;;;;;;5.23;1.57;;;5.00;99.90;;;;;;5031061;28;20556;-75
2021/01/19 00:03:14;;;;;;;3.37;1.30;;;5.00;99.90;;;;;;5016731;28;20240;-76
2021/01/19 00:05:42;;;;;;;2.80;1.30;;;5.00;99.90;;;;;;5011246;28;20204;-75
2021/01/19 00:08:08;;;;;;;5.60;1.80;;;5.00;99.90;;;;;;5025713;28;20213;-76
2021/01/19 00:10:33;;;;;;;2.43;1.47;;;5.00;99.90;;;;;;5030994;28;20201;-76
2021/01/19 00:12:59;;;;;;;1.67;1.10;;;5.10;99.90;;;;;;5015878;28;21004;-76
2021/01/19 00:15:25;;;;;;;5.20;1.93;;;5.00;99.90;;;;;;5010821;28;20193;-75
2021/01/19 00:17:50;;;;;;;2.47;1.50;;;5.10;99.90;;;;;;5022283;28;20711;-76
2021/01/19 00:20:16;;;;;;;4.13;1.50;;;5.10;99.90;;;;;;5029917;28;20555;-75
2021/01/19 00:22:42;;;;;;;4.83;1.60;;;5.10;99.90;;;;;;5010399;28;20206;-76
2021/01/19 00:25:08;;;;;;;2.63;1.00;;;5.00;99.90;;;;;;5009515;28;20625;-75
2021/01/19 00:27:33;;;;;;;1.30;1.00;;;5.00;99.90;;;;;;5027993;28;20624;-75
2021/01/19 00:29:59;;;;;;;7.87;2.17;;;5.10;99.90;;;;;;5030524;28;20265;-75
2021/01/19 00:32:25;;;;;;;3.03;1.10;;;5.10;99.90;;;;;;5014028;28;20202;-75
2021/01/19 00:34:50;;;;;;;2.80;1.43;;;5.10;99.90;;;;;;5013116;28;20262;-75
2021/01/19 00:37:16;;;;;;;5.40;1.60;;;5.10;99.90;;;;;;5030408;28;20232;-76
2021/01/19 00:39:42;;;;;;;4.63;1.20;;;5.10;99.90;;;;;;5026896;28;20189;-75
2021/01/19 00:42:07;;;;;;;2.80;1.27;;;5.10;99.90;;;;;;5010349;28;20263;-75
2021/01/19 00:44:33;;;;;;;1.83;1.20;;;5.10;99.90;;;;;;5010973;28;20202;-75
2021/01/19 00:46:59;;;;;;;3.90;1.20;;;5.10;99.90;;;;;;5027645;28;20347;-76
2021/01/19 00:49:24;;;;;;;2.50;1.07;;;5.10;99.90;;;;;;5021451;28;20201;-75
2021/01/19 00:51:50;;;;;;;3.80;1.50;;;5.20;99.90;;;;;;5010456;28;20693;-76
2021/01/19 00:54:16;;;;;;;2.07;1.10;;;5.20;99.90;;;;;;5015922;28;20209;-75
2021/01/19 00:56:43;;;;;;;3.00;1.60;;;5.20;99.90;;;;;;5030687;28;20162;-75
2021/01/19 00:59:09;;;;;;;6.25;1.00;;;5.20;99.90;;;;;;5026263;28;20480;-75
2021/01/19 01:01:42;;;;;;;5.65;1.45;;;5.20;99.90;;;;;;5008971;28;20625;-75
2021/01/19 01:04:09;;;;;;;5.80;1.30;;;5.20;99.90;;;;;;5021015;28;20201;-76
2021/01/19 01:06:34;;;;;;;2.45;1.23;;;5.20;99.90;;;;;;5030454;28;20528;-75
2021/01/19 01:09:00;;;;;;;3.33;1.60;;;5.10;99.90;;;;;;5021151;28;20213;-76
2021/01/19 01:11:25;;;;;;;4.13;1.70;;;5.10;99.90;;;;;;5010622;28;20269;-76
2021/01/19 01:13:51;;;;;;;2.37;1.60;;;5.10;99.90;;;;;;5017789;28;20647;-75
2021/01/19 01:16:17;;;;;;;10.07;1.90;;;5.10;99.90;;;;;;5023326;28;20616;-75
2021/01/19 01:18:42;;;;;;;4.30;1.70;;;5.10;99.90;;;;;;5025756;28;20324;-75
2021/01/19 01:21:12;;;;;;;3.50;1.83;;;5.10;99.90;;;;;;5033906;28;20189;-75
2021/01/19 01:23:38;;;;;;;3.80;1.40;;;5.20;99.90;;;;;;5032839;28;20256;-75
2021/01/19 01:26:04;;;;;;;5.93;1.80;;;5.10;99.90;;;;;;5033583;28;20193;-75
2021/01/19 01:28:30;;;;;;;2.05;1.45;;;5.10;99.90;;;;;;5005184;28;20220;-75
2021/01/19 01:30:55;;;;;;;5.90;1.97;;;5.10;99.90;;;;;;5013678;28;20668;-76
2021/01/19 01:33:21;;;;;;;5.57;2.20;;;5.20;99.90;;;;;;5011697;28;20476;-75
2021/01/19 01:35:47;;;;;;;2.33;1.53;;;5.10;99.90;;;;;;5013277;28;20186;-76
2021/01/19 01:38:12;;;;;;;2.70;1.77;;;5.20;99.90;;;;;;5026754;28;20244;-76
2021/01/19 01:40:38;;;;;;;6.43;2.93;;;5.10;99.90;;;;;;5032036;28;20200;-76
2021/01/19 01:43:12;;;;;;;4.40;1.87;;;5.10;99.90;;;;;;5020237;28;20236;-76
2021/01/19 01:45:38;;;;;;;9.02;1.67;;;5.00;99.90;;;;;;5013395;28;20186;-76
2021/01/19 01:48:04;;;;;;;4.47;2.60;;;5.00;99.90;;;;;;5031342;28;21003;-76
2021/01/19 01:50:30;;;;;;;4.50;2.50;;;5.00;99.90;;;;;;5033313;28;20583;-76
2021/01/19 01:52:58;;;;;;;7.83;2.40;;;5.00;99.90;;;;;;5015024;28;20274;-76
2021/01/19 01:55:23;;;;;;;3.03;1.55;;;5.00;99.90;;;;;;5013283;28;20530;-76
2021/01/19 01:57:50;;;;;;;5.50;2.13;;;4.90;99.90;;;;;;5028161;28;20231;-76
2021/01/19 02:00:17;;;;;;;6.97;2.80;;;4.90;99.90;;;;;;5031753;28;20189;-75
2021/01/19 02:02:52;;;;;;;5.57;2.10;;;4.90;99.90;;;;;;5012952;28;20197;-76
2021/01/19 02:05:19;;;;;;;3.97;1.80;;;4.90;99.90;;;;;;5012892;28;20193;-76
2021/01/19 02:08:05;;;;;;;3.72;1.63;;;4.90;99.90;;;;;;5013058;28;20718;-75
2021/01/19 02:10:52;;;;;;;2.00;1.60;;;4.90;99.90;;;;;;5014548;28;20222;-75
2021/01/19 02:13:40;;;;;;;6.20;1.85;;;4.90;99.90;;;;;;5011352;28;20217;-76
2021/01/19 02:16:20;;;;;;;6.47;2.65;;;4.80;99.90;;;;;;5013161;28;20193;-76
2021/01/19 02:19:10;;;;;;;3.30;2.00;;;4.80;99.90;;;;;;5012455;28;20300;-76
2021/01/19 02:22:04;;;;;;;3.78;1.98;;;4.80;99.90;;;;;;5029576;28;20193;-76
2021/01/19 02:24:36;;;;;;;3.80;2.30;;;4.70;99.90;;;;;;5032719;28;20268;-76
2021/01/19 02:27:10;;;;;;;5.72;1.98;;;4.80;99.90;;;;;;4992299;28;20238;-75
2021/01/19 02:30:00;;;;;;;4.32;3.20;;;4.70;99.90;;;;;;5008709;28;20197;-75
2021/01/19 02:33:04;;;;;;;5.20;2.17;;;4.60;99.90;;;;;;5032220;28;20508;-75
2021/01/19 02:36:04;;;;;;;3.22;1.80;;;4.60;99.90;;;;;;4990484;28;20194;-75
2021/01/19 02:38:43;;;;;;;6.60;2.58;;;4.60;99.90;;;;;;4927459;28;20437;-76
2021/01/19 02:41:11;;;;;;;3.95;2.13;;;4.50;99.90;;;;;;5032728;28;20259;-75
2021/01/19 02:43:41;;;;;;;3.20;2.22;;;4.60;99.90;;;;;;5018350;28;20209;-75
2021/01/19 02:46:07;;;;;;;6.70;2.40;;;4.70;99.90;;;;;;5012861;28;20186;-75
2021/01/19 02:48:33;;;;;;;5.03;2.00;;;4.60;99.90;;;;;;5011263;28;20292;-75
2021/01/19 02:50:59;;;;;;;4.28;2.35;;;4.60;99.90;;;;;;4994909;28;20277;-75
2021/01/19 02:53:25;;;;;;;11.00;2.80;;;4.70;99.90;;;;;;5031656;28;20375;-75
2021/01/19 02:55:51;;;;;;;4.93;2.42;;;4.70;99.90;;;;;;5032319;28;20172;-75
2021/01/19 02:58:31;;;;;;;6.22;2.80;;;4.60;99.90;;;;;;5012878;28;20205;-76
2021/01/19 03:01:06;;;;;;;3.67;2.60;;;4.60;99.90;;;;;;5013304;28;20173;-75
2021/01/19 03:03:38;;;;;;;9.88;3.05;;;4.70;99.90;;;;;;5032263;28;20217;-75
2021/01/19 03:06:14;;;;;;;4.28;2.38;;;4.60;99.90;;;;;;5032314;28;20176;-75
2021/01/19 03:08:42;;;;;;;5.20;2.00;;;4.60;99.90;;;;;;4992228;28;20218;-75
2021/01/19 03:11:10;;;;;;;4.13;2.05;;;4.60;99.90;;;;;;5005621;28;20177;-75
2021/01/19 03:13:36;;;;;;;4.57;3.00;;;4.60;99.90;;;;;;5011272;28;20600;-76
2021/01/19 03:16:10;;;;;;;5.20;2.20;;;4.60;99.90;;;;;;5012500;28;20240;-75
2021/01/19 03:18:37;;;;;;;6.55;2.78;;;4.60;99.90;;;;;;5012083;28;20448;-75
2021/01/19 03:21:06;;;;;;;7.15;2.85;;;4.60;99.90;;;;;;5032416;28;20165;-75
2021/01/19 03:23:32;;;;;;;6.25;2.50;;;4.60;99.90;;;;;;5031138;28;20216;-76
2021/01/19 03:25:59;;;;;;;4.97;3.17;;;4.60;99.90;;;;;;5012122;28;20162;-75
2021/01/19 03:28:24;;;;;;;6.57;2.72;;;4.60;99.90;;;;;;5024621;28;20557;-76
2021/01/19 03:30:50;;;;;;;5.07;3.10;;;4.60;99.90;;;;;;5032123;28;20176;-75
2021/01/19 03:33:16;;;;;;;7.47;2.85;;;4.70;99.90;;;;;;5029583;28;20241;-75
2021/01/19 03:35:42;;;;;;;11.77;3.10;;;4.60;99.90;;;;;;5032542;28;20243;-75
2021/01/19 03:38:08;;;;;;;5.83;2.30;;;4.60;99.90;;;;;;5021052;28;20468;-75
2021/01/19 03:40:34;;;;;;;7.70;2.97;;;4.70;99.90;;;;;;5012584;28;20508;-76
2021/01/19 03:43:00;;;;;;;6.30;2.60;;;4.70;99.90;;;;;;5025512;28;20631;-75
2021/01/19 03:45:27;;;;;;;4.30;3.30;;;4.60;99.90;;;;;;5031844;28;20188;-75
2021/01/19 03:47:53;;;;;;;7.95;3.00;;;4.70;99.90;;;;;;5017361;28;20475;-75
2021/01/19 03:50:19;;;;;;;5.80;2.60;;;4.70;99.90;;;;;;5011991;28;20213;-75
2021/01/19 03:52:45;;;;;;;5.78;2.80;;;4.70;99.90;;;;;;5022940;28;20443;-75
2021/01/19 03:55:11;;;;;;;6.20;2.63;;;4.80;99.90;;;;;;5031718;28;20225;-75
2021/01/19 03:57:36;;;;;;;5.23;2.67;;;4.80;99.90;;;;;;5013336;28;20292;-76
2021/01/19 04:00:13;;;;;;;7.13;2.40;;;4.80;99.90;;;;;;5012090;28;20431;-75
2021/01/19 04:02:39;;;;;;;6.78;3.33;;;4.80;99.90;;;;;;5022654;28;20292;-76
2021/01/19 04:05:06;;;;;;;7.90;2.63;;;4.80;99.90;;;;;;5010770;28;20189;-75
2021/01/19 04:07:41;;;;;;;4.65;2.33;;;4.90;99.90;;;;;;5027770;28;20217;-75
2021/01/19 04:10:09;;;;;;;8.00;2.97;;;4.80;99.90;;;;;;5028845;28;20571;-75
2021/01/19 04:12:35;;;;;;;3.80;2.97;;;4.80;99.90;;;;;;5010521;28;20205;-76
2021/01/19 04:15:00;;;;;;;7.25;3.05;;;4.80;99.90;;;;;;5011883;28;20285;-75
2021/01/19 04:17:26;;;;;;;5.70;2.67;;;4.90;99.90;;;;;;5011504;28;20301;-75
2021/01/19 04:19:52;;;;;;;9.53;3.53;;;4.90;99.90;;;;;;5012345;28;20189;-75
2021/01/19 04:22:17;;;;;;;6.03;2.50;;;5.00;99.90;;;;;;5030287;28;20204;-75
2021/01/19 04:24:43;;;;;;;5.37;2.57;;;5.00;99.90;;;;;;5026114;28;20201;-76
2021/01/19 04:27:08;;;;;;;5.83;2.70;;;5.00;99.90;;;;;;5011354;28;20378;-75
2021/01/19 04:29:34;;;;;;;9.27;3.00;;;5.00;99.90;;;;;;5013441;28;20579;-76
2021/01/19 04:32:00;;;;;;;3.40;2.77;;;5.00;99.90;;;;;;5009229;28;20202;-76
2021/01/19 04:34:25;;;;;;;6.13;2.47;;;5.10;99.90;;;;;;5011948;28;20688;-77
2021/01/19 04:36:51;;;;;;;5.23;3.03;;;5.00;99.90;;;;;;5010417;28;20584;-76
2021/01/19 04:39:17;;;;;;;3.37;2.10;;;4.90;99.90;;;;;;5000136;28;20525;-76
2021/01/19 04:41:46;;;;;;;4.40;2.63;;;4.90;99.90;;;;;;5030199;28;20161;-76
2021/01/19 04:44:12;;;;;;;6.75;2.95;;;5.00;99.90;;;;;;5024316;28;20202;-76
2021/01/19 04:46:40;;;;;;;4.40;2.17;;;5.00;99.90;;;;;;5011079;28;20657;-76
2021/01/19 04:49:06;;;;;;;6.65;2.65;;;5.10;99.90;;;;;;5016433;28;20243;-77
2021/01/19 04:51:38;;;;;;;4.57;3.10;;;5.10;99.90;;;;;;5017105;28;20253;-76
2021/01/19 04:54:08;;;;;;;3.17;1.85;;;5.10;99.90;;;;;;5014388;28;20296;-76
2021/01/19 04:56:39;;;;;;;7.22;2.60;;;5.10;99.90;;;;;;5013276;28;20516;-76
2021/01/19 04:59:13;;;;;;;3.88;2.00;;;5.10;99.90;;;;;;5030435;28;20213;-76
2021/01/19 05:02:08;;;;;;;4.28;2.20;;;5.10;99.90;;;;;;5034249;28;20173;-76
2021/01/19 05:04:46;;;;;;;5.97;2.10;;;5.10;99.90;;;;;;5014189;28;20205;-76
2021/01/19 05:07:44;;;;;;;4.38;1.92;;;5.20;99.90;;;;;;5031302;28;20209;-77
2021/01/19 05:10:13;;;;;;;2.72;2.00;;;5.20;99.90;;;;;;5016670;28;20213;-76
2021/01/19 05:12:42;;;;;;;3.72;2.45;;;5.20;99.90;;;;;;5033475;28;20602;-76
2021/01/19 05:15:13;;;;;;;6.15;1.60;;;5.30;99.90;;;;;;5031595;28;20237;-76
2021/01/19 05:17:40;;;;;;;3.08;1.75;;;5.30;99.90;;;;;;5013430;28;20205;-76
2021/01/19 05:20:08;;;;;;;7.03;1.45;;;5.20;99.90;;;;;;5014905;28;20194;-76
2021/01/19 05:22:34;;;;;;;2.05;1.33;;;5.30;99.90;;;;;;4993663;28;20289;-77
2021/01/19 05:25:00;;;;;;;2.57;1.50;;;5.30;99.90;;;;;;4994149;28;20277;-76
2021/01/19 05:27:26;;;;;;;2.08;1.70;;;5.30;99.90;;;;;;5032242;28;20575;-77
2021/01/19 05:30:05;;;;;;;4.30;1.90;;;5.30;99.90;;;;;;5033467;28;20584;-76
2021/01/19 05:32:37;;;;;;;2.35;1.40;;;5.20;99.90;;;;;;5013278;28;20210;-76
2021/01/19 05:35:16;;;;;;;3.65;1.58;;;5.30;99.90;;;;;;5016079;28;20212;-76
2021/01/19 05:37:53;;;;;;;4.43;1.65;;;5.40;99.90;;;;;;4993574;28;20222;-76
2021/01/19 05:40:19;;;;;;;4.13;1.27;;;5.40;99.90;;;;;;5001960;28;20189;-77
2021/01/19 05:42:45;;;;;;;2.33;1.30;;;5.40;99.90;;;;;;5032719;28;20219;-76
2021/01/19 05:45:11;;;;;;;2.30;1.13;;;5.40;99.90;;;;;;5031413;28;20206;-76
2021/01/19 05:47:38;;;;;;;3.35;0.80;;;5.50;99.90;;;;;;5032858;28;20205;-76
2021/01/19 05:50:04;;;;;;;2.17;0.90;;;5.50;99.90;;;;;;5022932;28;20225;-76
2021/01/19 05:52:31;;;;;;;2.05;0.95;;;5.50;99.90;;;;;;5013026;28;20205;-76
2021/01/19 05:54:59;;;;;;;0.60;0.50;;;5.50;99.90;;;;;;5025901;28;20282;-76
2021/01/19 05:57:26;;;;;;;1.80;0.80;;;5.50;99.90;;;;;;5032885;28;20255;-76
2021/01/19 06:00:01;;;;;;;1.83;0.77;;;5.50;99.90;;;;;;5021184;28;20225;-76
2021/01/19 06:02:40;;;;;;;2.38;0.73;;;5.40;99.90;;;;;;5012846;28;20686;-76
2021/01/19 06:05:10;;;;;;;0.73;0.50;;;5.50;99.90;;;;;;5025700;28;20201;-76
2021/01/19 06:07:38;;;;;;;1.13;0.60;;;5.50;99.90;;;;;;5014086;28;20710;-76
2021/01/19 06:10:12;;;;;;;0.95;0.63;;;5.60;99.90;;;;;;5031784;28;20516;-75
2021/01/19 06:12:38;;;;;;;1.20;0.60;;;5.60;99.90;;;;;;5030941;28;20212;-76
2021/01/19 06:15:05;;;;;;;1.00;0.50;;;5.60;99.90;;;;;;5016129;28;20232;-75
2021/01/19 06:17:30;;;;;;;1.58;0.70;;;5.60;99.90;;;;;;5025119;28;20449;-75
2021/01/19 06:20:00;;;;;;;1.50;0.70;;;5.60;99.90;;;;;;5024549;28;20197;-75
2021/01/19 06:22:28;;;;;;;1.35;0.70;;;5.50;99.90;;;;;;5012298;28;20565;-76
2021/01/19 06:24:58;;;;;;;1.38;0.70;;;5.60;99.90;;;;;;5018800;28;20193;-75
2021/01/19 06:27:23;;;;;;;0.95;0.50;;;5.60;99.90;;;;;;5012152;28;20624;-75
2021/01/19 06:30:09;;;;;;;1.33;0.77;;;5.60;99.90;;;;;;5023984;28;20204;-75
2021/01/19 06:32:35;;;;;;;0.90;0.60;;;5.60;99.90;;;;;;5031864;28;20209;-75
2021/01/19 06:35:18;;;;;;;1.70;1.25;;;5.60;99.90;;;;;;5019808;28;20213;-75
2021/01/19 06:37:48;;;;;;;1.60;0.88;;;5.60;99.90;;;;;;5021778;28;20687;-75
2021/01/19 06:40:16;;;;;;;1.98;0.80;;;5.50;99.90;;;;;;5014927;28;20221;-75
2021/01/19 06:42:45;;;;;;;1.17;0.80;;;5.50;99.90;;;;;;5010394;28;20626;-75
2021/01/19 06:45:12;;;;;;;2.20;1.00;;;5.40;99.90;;;;;;5011164;28;20193;-75
2021/01/19 06:47:52;;;;;;;1.60;1.30;;;5.40;99.90;;;;;;4999531;28;20293;-76
2021/01/19 06:50:27;;;;;;;3.60;1.10;;;5.40;99.90;;;;;;5011902;28;20202;-76
2021/01/19 06:53:14;;;;;;;1.45;1.02;;;5.40;99.90;;;;;;5029159;28;20212;-77
2021/01/19 06:55:58;;;;;;;2.28;1.10;;;5.30;99.90;;;;;;5031114;28;20189;-77
2021/01/19 06:58:56;;;;;;;4.40;1.20;;;5.30;99.90;;;;;;5011040;28;20620;-77
2021/01/19 07:01:28;;;;;;;1.52;1.10;;;5.30;99.90;;;;;;5011335;28;20201;-76
2021/01/19 07:04:25;;;;;;;1.35;0.90;;;5.30;99.90;;;;;;4993243;28;20734;-77
2021/01/19 07:07:06;;;;;;;1.23;1.13;;;5.30;99.90;;;;;;5027331;28;20193;-76
2021/01/19 07:09:46;;;;;;;1.88;0.93;;;5.30;99.90;;;;;;5031481;28;20623;-78
2021/01/19 07:12:17;;;;;;;1.20;0.77;;;5.30;99.90;;;;;;5030713;28;20213;-78
2021/01/19 07:14:52;;;;;;;2.13;0.93;;;5.30;99.90;;;;;;5031108;28;20208;-78
2021/01/19 07:17:18;;;;;;;2.03;1.05;;;5.30;99.90;;;;;;5032104;28;20204;-79
2021/01/19 07:19:49;;;;;;;2.35;0.90;;;5.20;99.90;;;;;;5024924;28;20538;-77
2021/01/19 07:22:47;;;;;;;1.85;1.27;;;5.20;99.90;;;;;;5011087;28;20202;-77
2021/01/19 07:25:13;;;;;;;4.47;1.38;;;5.30;99.90;;;;;;5014082;28;20208;-77
2021/01/19 07:27:39;;;;;;;1.75;1.40;;;5.30;99.90;;;;;;5010745;28;20604;-77
2021/01/19 07:30:06;;;;;;;2.20;1.00;;;5.30;99.90;;;;;;5012980;28;20198;-79
2021/01/19 07:32:33;;;;;;;2.63;1.27;;;5.30;99.90;;;;;;5012798;28;20206;-79
2021/01/19 07:34:59;;;;;;;1.10;0.90;;;5.20;99.90;;;;;;5013197;28;20202;-79
2021/01/19 07:37:36;;;;;;;3.33;1.05;;;5.30;99.90;;;;;;5013228;28;20201;-80
2021/01/19 07:40:15;;;;;;;2.08;0.70;;;5.30;99.90;;;;;;5013030;28;20609;-80
2021/01/19 07:42:41;;;;;;;1.50;0.88;;;5.30;99.90;;;;;;5011768;28;20221;-80
2021/01/19 07:45:07;;;;;;;4.80;1.53;;;5.30;99.90;;;;;;5013332;28;20611;-80
2021/01/19 07:47:38;;;;;;;1.33;0.90;;;5.30;99.90;;;;;;5012778;28;20456;-80
2021/01/19 07:50:18;;;;;;;1.88;0.95;;;5.30;99.90;;;;;;5013544;28;20545;-80
2021/01/19 07:52:46;;;;;;;2.15;0.98;;;5.30;99.90;;;;;;5012915;28;20296;-80
2021/01/19 07:55:22;;;;;;;1.98;0.90;;;5.30;99.90;;;;;;5012991;28;20201;-80
2021/01/19 07:57:50;;;;;;;1.08;0.90;;;5.20;99.90;;;;;;5012776;28;20609;-80
2021/01/19 08:00:27;;;;;;;1.90;0.90;;;5.20;99.90;;;;;;5013173;28;20216;-80
2021/01/19 08:03:06;;;;;;;1.30;1.02;;;5.20;99.90;;;;;;5011669;28;20209;-80
2021/01/19 08:05:32;;;;;;;1.90;1.17;;;5.30;99.90;;;;;;5013056;28;20696;-80
2021/01/19 08:07:59;;;;;;;2.47;1.70;;;5.30;99.90;;;;;;5012529;28;20213;-80
2021/01/19 08:10:26;;;;;;;1.45;1.27;;;5.30;99.90;;;;;;5011267;28;20212;-79
2021/01/19 08:12:56;;;;;;;2.58;1.02;;;5.30;99.90;;;;;;5030314;28;20220;-79
2021/01/19 08:15:31;;;;;;;1.80;1.20;;;5.20;99.90;;;;;;4995405;28;20746;-79
2021/01/19 08:17:58;;;;;;;2.78;0.85;;;5.30;99.90;;;;;;4992653;28;20595;-78
2021/01/19 08:20:28;;;;;;;0.75;0.60;;;5.40;99.90;;;;;;5023015;28;20188;-80
2021/01/19 08:23:17;;;;;;;2.22;0.73;;;5.40;99.90;;;;;;5031061;28;20630;-80
2021/01/19 08:25:43;;;;;;;0.75;0.60;;;5.50;99.90;;;;;;5036672;28;20192;-80
2021/01/19 08:28:11;;;;;;;0.95;0.60;;;5.40;99.90;;;;;;5018542;28;20324;-80
2021/01/19 08:30:40;;;;;;;1.50;0.68;;;5.40;99.90;;;;;;5028045;28;20193;-78
2021/01/19 08:33:06;;;;;;;1.50;0.93;;;5.50;99.90;;;;;;5025771;28;20291;-78
2021/01/19 08:35:32;;;;;;;3.10;0.73;;;5.50;99.90;;;;;;5034189;28;20197;-78
2021/01/19 08:37:59;;;;;;;1.52;0.77;;;5.40;99.90;;;;;;5032017;28;20220;-78
2021/01/19 08:40:33;;;;;;;1.25;1.10;;;5.50;99.90;;;;;;5034058;28;20185;-78
2021/01/19 08:43:00;;;;;;;1.42;0.52;;;5.50;99.90;;;;;;5029298;28;20217;-77
2021/01/19 08:45:34;;;;;;;2.50;0.88;;;5.50;99.90;;;;;;5031373;28;20209;-78
2021/01/19 08:48:02;;;;;;;2.25;0.93;;;5.50;99.90;;;;;;5006981;28;20210;-78
2021/01/19 08:50:35;;;;;;;0.68;0.57;;;5.60;99.90;;;;;;5009368;28;20169;-79
2021/01/19 08:53:12;;;;;;;1.58;0.90;;;5.50;99.90;;;;;;5013821;28;20214;-79
2021/01/19 08:55:38;;;;;;;0.95;0.70;;;5.50;99.90;;;;;;5029892;28;20165;-80
2021/01/19 08:58:24;;;;;;;0.77;0.50;;;5.50;99.90;;;;;;5035657;28;20213;-80
2021/01/19 09:00:49;;;;;;;1.25;0.60;;;5.60;99.90;;;;;;5036023;28;20189;-80
2021/01/19 09:03:17;;;;;;;0.70;0.50;;;5.70;99.90;;;;;;5035480;28;20292;-80
2021/01/19 09:05:43;;;;;;;0.52;0.47;;;5.70;99.90;;;;;;5036023;28;20166;-80
2021/01/19 09:08:13;;;;;;;0.70;0.50;;;5.70;99.90;;;;;;5017500;28;20221;-80
2021/01/19 09:10:39;;;;;;;0.70;0.40;;;5.70;99.90;;;;;;5018255;28;20656;-79
2021/01/19 09:13:05;;;;;;;1.10;0.77;;;5.70;99.90;;;;;;5035444;28;20213;-80
2021/01/19 09:15:38;;;;;;;0.93;0.40;;;5.70;99.90;;;;;;5035988;28;20450;-80
2021/01/19 09:18:04;;;;;;;0.60;0.47;;;5.70;99.90;;;;;;5017667;28;20267;-80
2021/01/19 09:20:30;;;;;;;0.60;0.40;;;5.80;99.90;;;;;;5035936;28;20174;-80
2021/01/19 09:23:18;;;;;;;0.60;0.40;;;5.80;99.90;;;;;;5035202;28;20319;-79
2021/01/19 09:25:45;;;;;;;1.17;0.50;;;5.80;99.90;;;;;;5035704;28;20157;-79
2021/01/19 09:28:12;;;;;;;0.50;0.45;;;5.80;99.90;;;;;;5035360;28;20832;-80
2021/01/19 09:30:39;;;;;;;0.90;0.63;;;5.80;99.90;;;;;;5016534;28;20541;-78
2021/01/19 09:33:12;;;;;;;1.40;0.50;;;5.80;99.90;;;;;;5021963;28;20248;-78
2021/01/19 09:35:39;;;;;;;0.50;0.40;;;5.80;99.90;;;;;;5016094;28;20174;-80
2021/01/19 09:38:17;;;;;;;1.13;0.50;;;5.80;99.90;;;;;;5014999;28;20216;-80
2021/01/19 09:40:43;;;;;;;1.52;0.50;;;5.70;99.90;;;;;;5015458;28;20166;-80
2021/01/19 09:43:14;;;;;;;0.60;0.50;;;5.80;99.90;;;;;;5015093;28;20225;-80
2021/01/19 09:45:41;;;;;;;0.90;0.40;;;5.90;99.90;;;;;;4998106;28;20180;-81
2021/01/19 09:48:08;;;;;;;0.60;0.40;;;5.90;99.90;;;;;;5014908;28;20345;-80
2021/01/19 09:50:34;;;;;;;0.95;0.43;;;6.00;99.90;;;;;;4996883;28;20223;-80
2021/01/19 09:53:00;;;;;;;0.70;0.40;;;6.00;99.90;;;;;;5014953;28;20296;-80
2021/01/19 09:55:32;;;;;;;0.83;0.50;;;6.00;99.90;;;;;;5015670;28;20429;-80
2021/01/19 09:58:03;;;;;;;1.90;0.38;;;6.10;99.90;;;;;;5015125;28;20236;-80
2021/01/19 10:00:37;;;;;;;0.93;0.50;;;6.10;99.90;;;;;;5014555;28;20161;-78
2021/01/19 10:03:26;;;;;;;0.50;0.40;;;6.20;99.90;;;;;;5020941;28;20223;-78
2021/01/19 10:06:03;;;;;;;0.90;0.50;;;6.20;99.90;;;;;;5032483;28;20161;-78
2021/01/19 10:08:30;;;;;;;0.63;0.40;;;6.20;99.90;;;;;;5014295;28;20240;-78
2021/01/19 10:10:56;;;;;;;0.68;0.50;;;6.30;99.90;;;;;;5014844;28;20170;-79
2021/01/19 10:13:27;;;;;;;0.50;0.40;;;6.40;99.90;;;;;;5013945;28;20225;-79
2021/01/19 10:15:57;;;;;;;1.20;0.47;;;6.40;99.90;;;;;;5015935;28;20318;-79
2021/01/19 10:18:23;;;;;;;1.25;0.47;;;6.40;99.90;;;;;;5033795;28;20217;-79
2021/01/19 10:20:49;;;;;;;1.73;1.10;;;6.50;99.90;;;;;;5028950;28;20174;-77
2021/01/19 10:23:28;;;;;;;0.70;0.55;;;6.50;99.90;;;;;;5011654;28;20293;-77
2021/01/19 10:26:15;;;;;;;0.60;0.30;;;6.40;99.90;;;;;;5026147;28;20180;-77
2021/01/19 10:28:43;;;;;;;0.77;0.50;;;6.40;99.90;;;;;;5030949;28;20213;-78
2021/01/19 10:31:20;;;;;;;2.40;0.50;;;6.50;99.90;;;;;;5015900;28;20197;-77
2021/01/19 10:33:56;;;;;;;1.42;0.47;;;6.60;99.90;;;;;;5024803;28;20767;-77
2021/01/19 10:36:26;;;;;;;1.27;1.05;;;6.60;99.90;;;;;;5031621;28;20165;-77
2021/01/19 10:38:52;;;;;;;1.25;0.68;;;6.60;99.90;;;;;;4999224;28;20703;-77
2021/01/19 10:41:28;;;;;;;2.45;0.82;;;6.70;99.90;;;;;;5020043;28;20259;-77
2021/01/19 10:43:55;;;;;;;0.60;0.50;;;6.80;99.90;;;;;;5030457;28;20217;-77
2021/01/19 10:46:26;;;;;;;0.98;0.40;;;6.80;99.90;;;;;;5023009;28;20636;-77
2021/01/19 10:49:13;;;;;;;0.50;0.30;;;6.80;99.90;;;;;;4993924;28;20700;-77
2021/01/19 10:51:48;;;;;;;4.88;0.63;;;6.80;99.90;;;;;;5012512;28;20181;-77
2021/01/19 10:54:21;;;;;;;1.35;0.60;;;6.90;99.90;;;;;;5014959;28;20197;-77
2021/01/19 10:57:00;;;;;;;0.85;0.40;;;6.90;99.90;;;;;;5023608;28;20212;-77
2021/01/19 10:59:25;;;;;;;0.90;0.60;;;6.90;99.90;;;;;;5012380;28;20162;-77
2021/01/19 11:01:51;;;;;;;0.90;0.47;;;7.00;99.90;;;;;;5027981;28;20563;-77
2021/01/19 11:04:17;;;;;;;0.70;0.50;;;7.00;99.90;;;;;;5029971;28;20197;-76
2021/01/19 11:06:42;;;;;;;0.80;0.43;;;7.00;99.90;;;;;;5014740;28;20170;-77
2021/01/19 11:09:08;;;;;;;1.87;0.60;;;7.00;99.90;;;;;;5013619;28;20266;-77
2021/01/19 11:11:37;;;;;;;3.63;0.50;;;7.10;99.90;;;;;;5009485;28;20323;-78
2021/01/19 11:14:05;;;;;;;1.40;0.40;;;7.10;99.90;;;;;;5020283;28;20201;-78
2021/01/19 11:16:37;;;;;;;0.50;0.30;;;7.00;99.90;;;;;;5013707;28;20189;-78
2021/01/19 11:19:04;;;;;;;1.15;0.55;;;7.00;99.90;;;;;;5011588;28;20210;-78
2021/01/19 11:21:31;;;;;;;0.60;0.40;;;7.00;99.90;;;;;;5014787;28;20533;-77
2021/01/19 11:23:58;;;;;;;0.82;0.40;;;7.10;99.90;;;;;;5011550;28;20197;-77
2021/01/19 11:26:24;;;;;;;0.60;0.50;;;7.00;99.90;;;;;;5027866;28;20213;-77
2021/01/19 11:28:50;;;;;;;1.37;1.00;;;7.00;99.90;;;;;;5017772;28;20722;-77
2021/01/19 11:31:25;;;;;;;0.60;0.40;;;7.00;99.90;;;;;;5011736;28;20425;-78
2021/01/19 11:33:50;;;;;;;1.13;0.60;;;7.10;99.90;;;;;;5009918;28;20205;-77
2021/01/19 11:36:24;;;;;;;0.70;0.33;;;7.10;99.90;;;;;;5012103;28;20624;-78
2021/01/19 11:38:52;;;;;;;1.25;0.50;;;7.10;99.90;;;;;;5023485;28;20205;-78
2021/01/19 11:41:19;;;;;;;0.77;0.45;;;7.10;99.90;;;;;;5013960;28;20257;-77
2021/01/19 11:43:46;;;;;;;1.92;0.70;;;7.10;99.90;;;;;;5012019;28;20209;-77
2021/01/19 11:46:12;;;;;;;0.80;0.57;;;7.20;99.90;;;;;;5011726;28;20170;-77
2021/01/19 11:48:38;;;;;;;0.70;0.50;;;7.20;99.90;;;;;;5013701;28;20748;-78
2021/01/19 11:51:04;;;;;;;1.45;0.68;;;7.20;99.90;;;;;;5011638;28;20201;-77
2021/01/19 11:53:30;;;;;;;1.00;0.40;;;7.20;99.90;;;;;;5026627;28;20235;-76
2021/01/19 11:55:58;;;;;;;0.60;0.40;;;7.20;99.90;;;;;;5029182;28;20204;-76
2021/01/19 11:58:23;;;;;;;1.30;0.65;;;7.30;99.90;;;;;;5025804;28;20213;-76
2021/01/19 12:00:49;;;;;;;0.60;0.50;;;7.20;99.90;;;;;;5011560;28;20178;-78
2021/01/19 12:03:18;;;;;;;0.60;0.50;;;7.20;99.90;;;;;;5012810;28;20570;-76
2021/01/19 12:05:45;;;;;;;0.60;0.47;;;7.30;99.90;;;;;;5029057;28;20424;-76
2021/01/19 12:08:11;;;;;;;0.75;0.50;;;7.30;99.90;;;;;;5024140;28;20219;-76
2021/01/19 12:10:37;;;;;;;0.83;0.40;;;7.30;99.90;;;;;;5024303;28;20257;-76
2021/01/19 12:13:07;;;;;;;1.53;0.50;;;7.30;99.90;;;;;;5010445;28;20224;-76
2021/01/19 12:15:33;;;;;;;1.50;0.50;;;7.30;99.90;;;;;;5029474;28;20683;-76
2021/01/19 12:17:59;;;;;;;0.77;0.50;;;7.40;99.90;;;;;;5028295;28;20209;-76
2021/01/19 12:20:25;;;;;;;1.53;0.70;;;7.40;99.90;;;;;;5028272;28;20920;-77
2021/01/19 12:22:51;;;;;;;0.70;0.60;;;7.40;99.90;;;;;;5027793;28;20470;-75
2021/01/19 12:25:16;;;;;;;0.90;0.50;;;7.40;99.90;;;;;;5023778;28;20390;-76
2021/01/19 12:27:42;;;;;;;0.67;0.40;;;7.40;99.90;;;;;;5010738;28;20296;-76
2021/01/19 12:30:08;;;;;;;1.43;0.50;;;7.50;99.90;;;;;;5018161;28;20206;-76
2021/01/19 12:32:34;;;;;;;0.70;0.50;;;7.50;99.90;;;;;;5016248;28;20214;-75
2021/01/19 12:35:00;;;;;;;1.40;0.60;;;7.50;99.90;;;;;;5023557;28;20207;-76
2021/01/19 12:37:26;;;;;;;0.55;0.38;;;7.50;99.90;;;;;;5015334;28;20690;-75
2021/01/19 12:39:52;;;;;;;2.00;0.50;;;7.50;99.90;;;;;;5011825;28;20186;-75
2021/01/19 12:42:17;;;;;;;1.53;0.77;;;7.40;99.90;;;;;;5018562;28;20334;-76
2021/01/19 12:44:43;;;;;;;0.70;0.50;;;7.40;99.90;;;;;;5030596;28;20197;-75
2021/01/19 12:47:09;;;;;;;1.10;0.60;;;7.50;99.90;;;;;;4993657;28;20720;-76
2021/01/19 12:49:34;;;;;;;1.10;0.53;;;7.50;99.90;;;;;;5012193;28;20573;-76
2021/01/19 12:52:00;;;;;;;0.80;0.60;;;7.50;99.90;;;;;;5010536;28;20210;-75
2021/01/19 12:54:26;;;;;;;1.73;0.60;;;7.60;99.90;;;;;;5012520;28;20624;-76
2021/01/19 12:56:51;;;;;;;0.90;0.77;;;7.50;99.90;;;;;;5011346;28;20731;-75
2021/01/19 12:59:17;;;;;;;3.43;0.60;;;7.60;99.90;;;;;;5011596;28;20186;-76
2021/01/19 13:01:43;;;;;;;1.13;0.60;;;7.50;99.90;;;;;;5024824;28;20227;-76
2021/01/19 13:04:08;;;;;;;0.67;0.60;;;7.60;99.90;;;;;;5021647;28;20229;-76
2021/01/19 13:06:34;;;;;;;0.93;0.70;;;7.60;99.90;;;;;;5012025;28;20168;-76
2021/01/19 13:09:00;;;;;;;1.27;0.70;;;7.50;99.90;;;;;;5011662;28;20688;-76
2021/01/19 13:11:25;;;;;;;0.70;0.70;;;7.60;99.90;;;;;;5033496;28;20173;-77